createdAt,value
2017-11-22T00:01:52.865Z,7.80
2017-11-22T00:06:55.435Z,7.10
2017-11-22T00:11:57.993Z,7.50
2017-11-22T00:17:00.540Z,7.40
2017-11-22T00:22:03.096Z,9.27
2017-11-22T00:27:05.665Z,10.10
2017-11-22T00:32:08.236Z,10.50
2017-11-22T00:37:10.779Z,8.60
2017-11-22T00:42:13.315Z,11.43
2017-11-22T00:47:15.879Z,7.80
2017-11-22T00:52:18.422Z,7.80
2017-11-22T00:57:20.991Z,8.27
2017-11-22T01:02:23.569Z,8.10
2017-11-22T01:07:26.113Z,8.07
2017-11-22T01:12:28.677Z,7.17
2017-11-22T01:17:31.995Z,9.10
2017-11-22T01:22:35.316Z,6.00
2017-11-22T01:27:37.865Z,5.93
2017-11-22T01:32:40.418Z,6.40
2017-11-22T01:37:42.992Z,7.87
2017-11-22T01:42:45.543Z,7.77
2017-11-22T01:47:48.113Z,13.20
2017-11-22T01:52:50.672Z,7.43
2017-11-22T01:57:53.196Z,7.90
2017-11-22T02:03:08.404Z,11.00
2017-11-22T02:08:10.955Z,12.97
2017-11-22T02:13:13.511Z,9.20
2017-11-22T02:18:16.061Z,6.30
2017-11-22T02:23:18.638Z,7.13
2017-11-22T02:28:21.187Z,7.03
2017-11-22T02:33:23.749Z,6.83
2017-11-22T02:38:26.316Z,10.83
2017-11-22T02:43:28.880Z,9.90
2017-11-22T02:48:32.212Z,6.83
2017-11-22T02:53:34.752Z,5.60
2017-11-22T02:58:37.310Z,6.47
2017-11-22T03:03:39.876Z,7.33
2017-11-22T03:08:43.205Z,7.27
2017-11-22T03:13:46.529Z,7.23
2017-11-22T03:18:49.837Z,7.50
2017-11-22T03:23:52.396Z,8.30
2017-11-22T03:28:54.943Z,7.50
2017-11-22T03:33:57.499Z,7.93
2017-11-22T03:39:00.048Z,7.77
2017-11-22T03:44:02.597Z,6.17
2017-11-22T03:49:05.892Z,6.17
2017-11-22T03:54:08.451Z,7.60
2017-11-22T03:59:11.002Z,7.10
2017-11-22T04:04:13.543Z,6.20
2017-11-22T04:09:16.891Z,5.90
2017-11-22T04:14:19.453Z,7.10
2017-11-22T04:19:27.602Z,5.10
2017-11-22T04:24:30.143Z,5.80
2017-11-22T04:29:32.712Z,4.97
2017-11-22T04:34:35.296Z,4.77
2017-11-22T04:39:37.851Z,5.80
2017-11-22T04:44:40.418Z,5.40
2017-11-22T04:49:42.974Z,4.53
2017-11-22T04:54:46.292Z,4.97
2017-11-22T04:59:48.849Z,4.63
2017-11-22T05:04:51.422Z,5.10
2017-11-22T05:09:53.988Z,5.90
2017-11-22T05:14:56.543Z,4.53
2017-11-22T05:19:59.092Z,4.40
2017-11-22T05:25:01.656Z,5.10
2017-11-22T05:30:04.210Z,5.23
2017-11-22T05:35:06.769Z,5.13
2017-11-22T05:40:09.312Z,3.90
2017-11-22T05:45:11.880Z,4.50
2017-11-22T05:50:15.509Z,3.97
2017-11-22T05:55:18.052Z,5.07
2017-11-22T06:00:22.547Z,4.80
2017-11-22T06:05:25.102Z,5.30
2017-11-22T06:10:27.640Z,5.50
2017-11-22T06:15:30.188Z,4.27
2017-11-22T06:20:32.744Z,6.37
2017-11-22T06:25:36.360Z,4.13
2017-11-22T06:30:46.477Z,4.90
2017-11-22T06:35:49.265Z,5.20
2017-11-22T06:40:51.808Z,4.23
2017-11-22T06:45:54.360Z,4.13
2017-11-22T06:50:56.892Z,5.13
2017-11-22T06:55:59.455Z,3.93
2017-11-22T07:01:01.996Z,4.60
2017-11-22T07:06:05.316Z,4.40
2017-11-22T07:11:07.857Z,3.77
2017-11-22T07:21:38.565Z,5.50
2017-11-22T07:26:41.116Z,4.00
2017-11-22T07:31:44.435Z,4.73
2017-11-22T07:36:53.495Z,4.60
2017-11-22T07:41:56.040Z,4.90
2017-11-22T07:47:00.532Z,5.40
2017-11-22T07:52:08.695Z,5.30
2017-11-22T07:57:11.226Z,4.70
2017-11-22T08:02:13.756Z,4.73
2017-11-22T08:07:16.313Z,3.70
2017-11-22T08:12:18.852Z,4.37
2017-11-22T08:17:21.401Z,5.10
2017-11-22T08:22:23.944Z,4.70
2017-11-22T08:27:26.604Z,6.20
2017-11-22T08:32:29.136Z,4.57
2017-11-22T08:37:31.700Z,5.60
2017-11-22T08:42:37.068Z,5.50
2017-11-22T08:47:39.633Z,4.77
2017-11-22T08:52:42.188Z,5.70
2017-11-22T08:57:51.220Z,4.60
2017-11-22T09:02:54.857Z,4.97
2017-11-22T09:07:57.392Z,5.80
2017-11-22T09:13:06.433Z,6.60
2017-11-22T09:18:12.935Z,7.00
2017-11-22T09:23:15.475Z,6.40
2017-11-22T09:28:18.019Z,6.80
2017-11-22T09:33:20.565Z,5.80
2017-11-22T09:38:23.335Z,6.60
2017-11-22T09:43:25.882Z,7.87
2017-11-22T09:48:28.441Z,6.80
2017-11-22T09:53:30.975Z,7.40
2017-11-22T09:58:33.532Z,6.30
2017-11-22T10:03:36.072Z,8.07
2017-11-22T10:08:38.616Z,7.07
2017-11-22T10:13:41.162Z,8.40
2017-11-22T10:18:46.195Z,8.30
2017-11-22T10:23:48.744Z,8.60
2017-11-22T10:28:51.284Z,7.77
2017-11-22T10:33:53.852Z,8.60
2017-11-22T10:38:57.156Z,6.13
2017-11-22T10:44:00.480Z,7.13
2017-11-22T10:49:03.031Z,8.50
2017-11-22T10:54:05.604Z,9.10
2017-11-22T10:59:08.160Z,7.80
2017-11-22T11:04:11.468Z,9.17
2017-11-22T11:09:14.022Z,8.43
2017-11-22T11:14:16.575Z,8.17
2017-11-22T11:19:19.395Z,10.33
2017-11-22T11:24:21.931Z,9.00
2017-11-22T11:29:24.779Z,9.20
2017-11-22T11:34:27.324Z,9.70
2017-11-22T11:39:29.883Z,8.97
2017-11-22T11:44:32.436Z,8.83
2017-11-22T11:49:34.984Z,9.47
2017-11-22T11:54:37.534Z,8.20
2017-11-22T11:59:40.089Z,8.70
2017-11-22T12:04:42.668Z,9.33
2017-11-22T12:09:45.216Z,9.10
2017-11-22T12:14:47.772Z,7.90
2017-11-22T12:19:51.093Z,7.73
2017-11-22T12:24:54.417Z,9.20
2017-11-22T12:29:56.979Z,9.73
2017-11-22T12:34:59.545Z,9.67
2017-11-22T12:40:02.101Z,10.40
2017-11-22T12:45:04.658Z,10.60
2017-11-22T12:50:08.036Z,10.10
2017-11-22T12:55:10.684Z,10.47
2017-11-22T13:00:13.242Z,10.43
2017-11-22T13:05:15.797Z,9.43
2017-11-22T13:15:46.360Z,11.70
2017-11-22T13:20:48.903Z,9.73
2017-11-22T13:25:51.442Z,8.47
2017-11-22T13:30:54.012Z,7.83
2017-11-22T13:35:56.569Z,7.97
2017-11-22T13:40:59.113Z,8.70
2017-11-22T13:46:01.673Z,9.17
2017-11-22T13:51:04.236Z,8.13
2017-11-22T13:56:06.789Z,9.10
2017-11-22T14:01:10.739Z,9.50
2017-11-22T14:06:13.306Z,9.00
2017-11-22T14:11:15.877Z,7.73
2017-11-22T14:16:18.424Z,7.07
2017-11-22T14:21:20.984Z,4.77
2017-11-22T14:26:23.569Z,5.37
2017-11-22T14:31:26.137Z,4.90
2017-11-22T14:36:28.683Z,4.03
2017-11-22T14:41:31.256Z,4.53
2017-11-22T14:46:33.827Z,5.20
2017-11-22T14:51:36.396Z,6.03
2017-11-22T14:56:38.940Z,6.47
2017-11-22T15:01:41.496Z,6.20
2017-11-22T15:06:44.813Z,5.83
2017-11-22T15:11:47.375Z,6.07
2017-11-22T15:16:49.936Z,4.97
2017-11-22T15:21:52.497Z,4.90
2017-11-22T15:26:55.936Z,5.23
2017-11-22T15:31:58.495Z,5.13
2017-11-22T15:37:01.053Z,4.53
2017-11-22T15:42:03.601Z,6.10
2017-11-22T15:47:06.155Z,4.97
2017-11-22T15:52:09.025Z,6.07
2017-11-22T15:57:11.574Z,6.77
2017-11-22T16:02:14.123Z,5.40
2017-11-22T16:07:16.724Z,5.10
2017-11-22T16:12:19.294Z,5.07
2017-11-22T16:17:22.300Z,5.87
2017-11-22T16:22:24.859Z,6.13
2017-11-22T16:27:27.419Z,5.60
2017-11-22T16:32:29.964Z,6.00
2017-11-22T16:37:32.600Z,6.70
2017-11-22T16:42:35.162Z,6.37
2017-11-22T16:47:37.732Z,5.87
2017-11-22T16:52:41.035Z,6.03
2017-11-22T16:57:43.584Z,7.73
2017-11-22T17:02:46.135Z,6.57
2017-11-22T17:07:48.696Z,6.30
2017-11-22T17:12:51.249Z,6.90
2017-11-22T17:17:53.832Z,6.77
2017-11-22T17:22:56.464Z,7.30
2017-11-22T17:27:59.030Z,6.00
2017-11-22T17:33:01.579Z,7.03
2017-11-22T17:38:04.136Z,5.87
2017-11-22T17:43:07.472Z,6.20
2017-11-22T17:48:10.027Z,7.37
2017-11-22T17:53:12.589Z,6.30
2017-11-22T17:58:15.181Z,6.40
2017-11-22T18:03:17.728Z,5.40
2017-11-22T18:08:20.285Z,7.20
2017-11-22T18:13:22.841Z,6.27
2017-11-22T18:18:25.652Z,6.67
2017-11-22T18:23:28.198Z,5.60
2017-11-22T18:28:30.754Z,5.87
2017-11-22T18:33:33.306Z,7.27
2017-11-22T18:38:36.603Z,7.03
2017-11-22T18:43:39.178Z,6.90
2017-11-22T18:48:41.724Z,6.53
2017-11-22T18:53:44.315Z,7.40
2017-11-22T18:58:47.648Z,7.50
2017-11-22T19:03:50.200Z,7.63
2017-11-22T19:08:52.743Z,5.80
2017-11-22T19:13:55.293Z,7.10
2017-11-22T19:18:57.847Z,5.90
2017-11-22T19:24:00.434Z,6.40
2017-11-22T19:29:03.009Z,5.87
2017-11-22T19:34:05.558Z,5.67
2017-11-22T19:39:08.885Z,5.27
2017-11-22T19:44:12.256Z,6.37
2017-11-22T19:49:14.803Z,6.83
2017-11-22T19:54:17.364Z,5.80
2017-11-22T19:59:19.933Z,6.80
2017-11-22T20:04:22.489Z,6.37
2017-11-22T20:09:25.042Z,6.57
2017-11-22T20:14:27.581Z,7.17
2017-11-22T20:19:30.119Z,8.03
2017-11-22T20:24:32.697Z,7.20
2017-11-22T20:29:35.296Z,7.20
2017-11-22T20:34:38.626Z,5.77
2017-11-22T20:39:41.181Z,5.57
2017-11-22T20:44:43.791Z,5.17
2017-11-22T21:00:56.653Z,7.40
2017-11-22T21:06:01.059Z,6.20
2017-11-22T21:11:08.005Z,6.03
2017-11-22T21:16:12.621Z,5.60
2017-11-22T21:21:15.869Z,8.00
2017-11-22T21:26:19.501Z,7.93
2017-11-22T21:31:24.049Z,8.83
2017-11-22T21:36:27.509Z,10.20
2017-11-22T21:41:31.966Z,8.27
2017-11-22T21:46:38.400Z,8.33
2017-11-22T21:51:42.938Z,8.40
2017-11-22T21:56:49.285Z,7.30
2017-11-22T22:07:01.325Z,6.07
2017-11-22T22:12:07.644Z,5.80
2017-11-22T22:22:17.821Z,6.00
2017-11-22T22:27:20.835Z,6.50
2017-11-22T22:32:27.002Z,6.07
2017-11-22T22:42:38.481Z,6.77
2017-11-22T22:47:45.115Z,8.03
2017-11-22T22:57:58.118Z,6.20
2017-11-22T23:03:01.792Z,6.40
2017-11-22T23:08:06.475Z,5.20
2017-11-22T23:23:26.975Z,5.83
2017-11-22T23:28:31.520Z,7.20
2017-11-22T23:33:35.269Z,6.40
2017-11-22T23:38:42.296Z,5.70
2017-11-22T23:43:45.862Z,5.40
2017-11-22T23:48:52.250Z,4.70
2017-11-22T23:53:55.222Z,6.37
2017-11-22T23:58:59.700Z,5.73
